Time;durP1;ratioP1;P1;durP2;ratioP2;P2;SDS_P1;SDS_P2;PMS_P1;PMS_P2;Temp;Humidity;BMP_temperature;BMP_pressure;BME280_temperature;BME280_humidity;BME280_pressure;Samples;Min_cycle;Max_cycle;Signal;HPM_P1;HPM_P2
2023/07/10 00:02:09;;;;;;;21.50;15.32;;;18.70;99.90;;;;;;5066685;28;20061;-79
2023/07/10 00:04:35;;;;;;;21.58;14.98;;;18.70;99.90;;;;;;5067019;28;20040;-80
2023/07/10 00:07:01;;;;;;;20.73;15.75;;;18.80;99.90;;;;;;5076808;28;20127;-79
2023/07/10 00:09:27;;;;;;;25.10;14.40;;;18.70;99.90;;;;;;5083537;28;20135;-79
2023/07/10 00:11:52;;;;;;;23.20;14.73;;;18.70;99.90;;;;;;5068051;28;20041;-78
2023/07/10 00:14:22;;;;;;;19.92;14.90;;;18.80;99.90;;;;;;5065849;28;20043;-79
2023/07/10 00:16:49;;;;;;;21.92;15.02;;;18.70;99.90;;;;;;5067588;28;20044;-79
2023/07/10 00:19:15;;;;;;;24.63;15.30;;;18.70;99.90;;;;;;5066547;28;20132;-79
2023/07/10 00:21:41;;;;;;;22.35;15.70;;;18.70;99.90;;;;;;5067871;28;20145;-79
2023/07/10 00:24:07;;;;;;;25.08;15.75;;;18.70;99.90;;;;;;5065530;28;20147;-78
2023/07/10 00:26:33;;;;;;;21.83;15.32;;;18.70;99.90;;;;;;5067867;28;21029;-79
2023/07/10 00:29:05;;;;;;;23.45;16.10;;;18.70;99.90;;;;;;5067451;28;20044;-79
2023/07/10 00:31:31;;;;;;;22.60;15.43;;;18.70;99.90;;;;;;5068618;28;20036;-79
2023/07/10 00:33:57;;;;;;;25.58;15.07;;;18.70;99.90;;;;;;5068104;28;20063;-78
2023/07/10 00:36:31;;;;;;;19.67;15.65;;;18.70;99.90;;;;;;5069656;28;20419;-78
2023/07/10 00:39:04;;;;;;;18.05;15.25;;;18.70;99.90;;;;;;5042820;28;20059;-78
2023/07/10 00:41:34;;;;;;;22.65;16.33;;;18.70;99.90;;;;;;5062618;28;20044;-79
2023/07/10 00:44:01;;;;;;;21.55;16.25;;;18.70;99.90;;;;;;5067842;28;20032;-79
2023/07/10 00:46:37;;;;;;;25.67;17.13;;;18.60;99.90;;;;;;5068420;28;20040;-78
2023/07/10 00:49:19;;;;;;;26.52;17.83;;;18.70;99.90;;;;;;5077020;28;20423;-78
2023/07/10 00:52:24;;;;;;;20.88;16.50;;;18.70;99.90;;;;;;5068256;28;20606;-79
2023/07/10 00:54:52;;;;;;;22.40;16.63;;;18.70;99.90;;;;;;5066516;28;20509;-78
2023/07/10 00:57:36;;;;;;;21.08;17.38;;;18.70;99.90;;;;;;5076478;28;20497;-78
2023/07/10 01:00:16;;;;;;;24.23;17.52;;;18.70;99.90;;;;;;5068071;28;20404;-78
2023/07/10 01:02:42;;;;;;;24.23;18.30;;;18.80;99.90;;;;;;5067799;28;20047;-78
2023/07/10 01:05:08;;;;;;;25.52;18.70;;;18.70;99.90;;;;;;5049213;28;20420;-78
2023/07/10 01:07:46;;;;;;;22.63;17.70;;;18.70;99.90;;;;;;5082750;28;20057;-78
2023/07/10 01:10:13;;;;;;;22.20;18.63;;;18.70;99.90;;;;;;5071405;28;20112;-78
2023/07/10 01:12:41;;;;;;;30.85;18.95;;;18.70;99.90;;;;;;5066131;28;20566;-78
2023/07/10 01:15:08;;;;;;;26.80;19.27;;;18.70;99.90;;;;;;5047885;28;20139;-78
2023/07/10 01:17:34;;;;;;;25.88;18.48;;;18.70;99.90;;;;;;5066182;28;20087;-78
2023/07/10 01:20:19;;;;;;;23.88;18.30;;;18.70;99.90;;;;;;5066146;28;20040;-79
2023/07/10 01:22:45;;;;;;;23.80;19.27;;;18.70;99.90;;;;;;5081802;28;20063;-78
2023/07/10 01:25:10;;;;;;;23.63;19.23;;;18.70;99.90;;;;;;5060875;28;20053;-78
2023/07/10 01:27:36;;;;;;;24.50;19.60;;;18.70;99.90;;;;;;5075932;28;20044;-77
2023/07/10 01:30:26;;;;;;;26.73;19.30;;;18.70;99.90;;;;;;5066674;28;20075;-78
2023/07/10 01:32:54;;;;;;;27.95;20.05;;;18.70;99.90;;;;;;5074860;28;20488;-78
2023/07/10 01:35:21;;;;;;;26.50;19.52;;;18.70;99.90;;;;;;5067390;28;20515;-78
2023/07/10 01:37:46;;;;;;;25.55;19.23;;;18.70;99.90;;;;;;5066773;28;20045;-78
2023/07/10 01:40:16;;;;;;;26.90;19.58;;;18.70;99.90;;;;;;5065110;28;21510;-78
2023/07/10 01:42:42;;;;;;;25.85;19.65;;;18.70;99.90;;;;;;5066827;28;20102;-78
2023/07/10 01:45:13;;;;;;;28.75;21.17;;;18.70;99.90;;;;;;5081512;28;20052;-78
2023/07/10 01:47:40;;;;;;;29.52;21.23;;;18.70;99.90;;;;;;5063494;28;20047;-78
2023/07/10 01:50:06;;;;;;;27.15;20.77;;;18.70;99.90;;;;;;5081763;28;20052;-78
2023/07/10 01:52:32;;;;;;;25.70;20.10;;;18.70;99.90;;;;;;5066094;28;20044;-78
2023/07/10 01:54:57;;;;;;;30.45;20.67;;;18.70;99.90;;;;;;5048653;28;20041;-78
2023/07/10 01:57:24;;;;;;;26.33;20.67;;;18.70;99.90;;;;;;5063597;28;20101;-78
2023/07/10 01:59:51;;;;;;;26.02;20.65;;;18.80;99.90;;;;;;5064751;28;20067;-78
2023/07/10 02:02:16;;;;;;;26.55;21.13;;;18.70;99.90;;;;;;5065367;28;20037;-78
2023/07/10 02:04:42;;;;;;;27.48;20.85;;;18.80;99.90;;;;;;5047756;28;20056;-78
2023/07/10 02:07:07;;;;;;;30.95;20.95;;;18.70;99.90;;;;;;5065220;28;20040;-78
2023/07/10 02:09:33;;;;;;;30.42;20.75;;;18.70;99.90;;;;;;5066367;28;20043;-78
2023/07/10 02:11:59;;;;;;;26.67;21.10;;;18.60;99.90;;;;;;5083211;28;20545;-77
2023/07/10 02:14:25;;;;;;;27.13;21.15;;;18.60;99.90;;;;;;5065856;28;20051;-78
2023/07/10 02:16:51;;;;;;;32.58;22.40;;;18.70;99.90;;;;;;5048274;28;20037;-78
2023/07/10 02:19:18;;;;;;;27.80;21.83;;;18.60;99.90;;;;;;5065712;28;20040;-78
2023/07/10 02:21:44;;;;;;;24.20;19.80;;;18.70;99.90;;;;;;5066447;28;20128;-78
2023/07/10 02:24:09;;;;;;;26.95;20.33;;;18.70;99.90;;;;;;5078451;28;20123;-78
2023/07/10 02:26:35;;;;;;;24.08;20.73;;;18.60;99.90;;;;;;5064388;28;20041;-78
2023/07/10 02:29:01;;;;;;;24.20;19.35;;;18.70;99.90;;;;;;5064495;28;20136;-77
2023/07/10 02:31:27;;;;;;;26.70;20.80;;;18.70;99.90;;;;;;5065863;28;20464;-78
2023/07/10 02:33:54;;;;;;;28.98;21.42;;;18.70;99.90;;;;;;5061033;28;20051;-78
2023/07/10 02:36:21;;;;;;;24.13;19.70;;;18.60;99.90;;;;;;5065562;28;20102;-78
2023/07/10 02:38:46;;;;;;;25.75;21.23;;;18.70;99.90;;;;;;5071893;28;20123;-78
2023/07/10 02:41:12;;;;;;;26.02;20.75;;;18.60;99.90;;;;;;5066692;28;20045;-78
2023/07/10 02:43:38;;;;;;;27.55;20.58;;;18.60;99.90;;;;;;5083055;28;20566;-78
2023/07/10 02:46:03;;;;;;;27.98;21.58;;;18.60;99.90;;;;;;5065848;28;20033;-77
2023/07/10 02:48:29;;;;;;;24.63;21.48;;;18.60;99.90;;;;;;5066318;28;20159;-78
2023/07/10 02:50:54;;;;;;;30.92;21.83;;;18.60;99.90;;;;;;5044697;28;20420;-78
2023/07/10 02:53:21;;;;;;;28.73;20.90;;;18.50;99.90;;;;;;5077657;28;20064;-78
2023/07/10 02:55:47;;;;;;;30.27;21.30;;;18.60;99.90;;;;;;5067207;28;20127;-79
2023/07/10 02:58:13;;;;;;;28.13;21.30;;;18.50;99.90;;;;;;5079311;28;20124;-78
2023/07/10 03:00:39;;;;;;;27.30;21.83;;;18.50;99.90;;;;;;5065825;28;20044;-78
2023/07/10 03:03:04;;;;;;;27.98;21.65;;;18.50;99.90;;;;;;5078042;28;20098;-78
2023/07/10 03:05:30;;;;;;;32.42;22.63;;;18.50;99.90;;;;;;5063687;28;20036;-78
2023/07/10 03:07:55;;;;;;;28.92;19.55;;;18.40;99.90;;;;;;5063912;28;20766;-78
2023/07/10 03:10:21;;;;;;;27.77;21.50;;;18.40;99.90;;;;;;5073933;28;20067;-78
2023/07/10 03:12:47;;;;;;;26.00;21.08;;;18.40;99.90;;;;;;5069714;28;20047;-78
2023/07/10 03:15:13;;;;;;;27.63;22.90;;;18.40;99.90;;;;;;5066272;28;20044;-78
2023/07/10 03:17:39;;;;;;;27.80;22.55;;;18.30;99.90;;;;;;5064260;28;20067;-78
2023/07/10 03:20:05;;;;;;;29.92;22.60;;;18.40;99.90;;;;;;5047965;28;20036;-78
2023/07/10 03:22:31;;;;;;;31.92;23.00;;;18.40;99.90;;;;;;5074438;28;20052;-78
2023/07/10 03:24:57;;;;;;;36.00;23.20;;;18.30;99.90;;;;;;5042791;28;20408;-78
2023/07/10 03:27:23;;;;;;;27.65;23.42;;;18.40;99.90;;;;;;5064993;28;20102;-78
2023/07/10 03:29:49;;;;;;;32.92;24.58;;;18.40;99.90;;;;;;5065476;28;20071;-78
2023/07/10 03:32:14;;;;;;;28.90;23.52;;;18.40;99.90;;;;;;5070240;28;20040;-78
2023/07/10 03:34:40;;;;;;;31.80;23.27;;;18.40;99.90;;;;;;5063863;28;20583;-78
2023/07/10 03:37:06;;;;;;;24.25;21.10;;;18.30;99.90;;;;;;5064254;28;20230;-78
2023/07/10 03:39:32;;;;;;;27.75;22.65;;;18.30;99.90;;;;;;5064776;28;20044;-78
2023/07/10 03:41:58;;;;;;;30.10;20.63;;;18.30;99.90;;;;;;5065764;28;20040;-78
2023/07/10 03:44:23;;;;;;;26.15;20.77;;;18.30;99.90;;;;;;5064453;28;20048;-78
2023/07/10 03:46:49;;;;;;;27.73;20.55;;;18.30;99.90;;;;;;5076843;28;20472;-78
2023/07/10 03:49:15;;;;;;;25.88;20.02;;;18.30;99.90;;;;;;5067132;28;20052;-78
2023/07/10 03:51:40;;;;;;;24.52;19.67;;;18.30;99.90;;;;;;5067907;28;20415;-78
2023/07/10 03:54:07;;;;;;;21.33;18.17;;;18.30;99.90;;;;;;5051446;28;20484;-78
2023/07/10 03:56:34;;;;;;;22.30;18.48;;;18.30;99.90;;;;;;5075716;28;20119;-78
2023/07/10 03:58:59;;;;;;;20.05;17.98;;;18.30;99.90;;;;;;5068504;28;20041;-79
2023/07/10 04:01:25;;;;;;;24.70;17.70;;;18.30;99.90;;;;;;5068551;28;20094;-78
2023/07/10 04:03:51;;;;;;;23.15;17.55;;;18.30;99.90;;;;;;5085343;28;20055;-78
2023/07/10 04:06:17;;;;;;;20.13;17.63;;;18.20;99.90;;;;;;5066791;28;20044;-78
2023/07/10 04:08:44;;;;;;;24.50;17.23;;;18.20;99.90;;;;;;5043932;28;20112;-78
2023/07/10 04:11:19;;;;;;;22.88;18.83;;;18.40;99.90;;;;;;5067528;28;20128;-78
2023/07/10 04:13:46;;;;;;;23.50;18.17;;;18.30;99.90;;;;;;5072997;28;20047;-79
2023/07/10 04:16:17;;;;;;;23.25;18.10;;;18.30;99.90;;;;;;5064240;28;20048;-78
2023/07/10 04:18:44;;;;;;;22.50;19.35;;;18.30;99.90;;;;;;5069392;28;20131;-77
2023/07/10 04:21:19;;;;;;;21.67;18.50;;;18.30;99.90;;;;;;5072975;28;20055;-79
2023/07/10 04:23:45;;;;;;;25.20;19.95;;;18.30;99.90;;;;;;5066424;28;20464;-79
2023/07/10 04:26:28;;;;;;;20.80;17.80;;;18.30;99.90;;;;;;5069210;28;20049;-79
2023/07/10 04:28:56;;;;;;;27.08;18.95;;;18.30;99.90;;;;;;5066632;28;20051;-78
2023/07/10 04:31:23;;;;;;;22.75;19.90;;;18.30;99.90;;;;;;5051512;28;20047;-79
2023/07/10 04:33:50;;;;;;;25.05;19.55;;;18.40;99.90;;;;;;5062658;28;20040;-78
2023/07/10 04:36:16;;;;;;;24.75;18.92;;;18.40;99.90;;;;;;5067421;28;20040;-78
2023/07/10 04:38:42;;;;;;;23.70;19.13;;;18.40;99.90;;;;;;5065065;28;20052;-78
2023/07/10 04:41:11;;;;;;;21.15;18.90;;;18.40;99.90;;;;;;5073880;28;20392;-78
2023/07/10 04:43:37;;;;;;;24.38;20.08;;;18.50;99.90;;;;;;5064639;28;20801;-78
2023/07/10 04:46:05;;;;;;;23.85;20.33;;;18.50;99.90;;;;;;5068438;28;20067;-78
2023/07/10 04:48:31;;;;;;;24.10;18.92;;;18.60;99.90;;;;;;5085079;28;20044;-78
2023/07/10 04:50:59;;;;;;;21.38;19.17;;;18.80;99.90;;;;;;5066527;28;20057;-78
2023/07/10 04:53:24;;;;;;;26.50;18.52;;;18.60;99.90;;;;;;5061321;28;20121;-77
2023/07/10 04:55:52;;;;;;;21.88;18.75;;;18.60;99.90;;;;;;5066537;28;20473;-78
2023/07/10 04:58:18;;;;;;;21.67;17.50;;;18.70;99.90;;;;;;5067212;28;20052;-78
2023/07/10 05:00:43;;;;;;;19.65;16.40;;;18.60;99.90;;;;;;5067510;28;20045;-78
2023/07/10 05:03:10;;;;;;;21.80;15.93;;;18.60;99.90;;;;;;5075470;28;20044;-78
2023/07/10 05:05:36;;;;;;;17.15;14.88;;;18.60;99.90;;;;;;5046335;28;20511;-78
2023/07/10 05:08:02;;;;;;;17.95;13.40;;;18.60;99.90;;;;;;5066441;28;20040;-79
2023/07/10 05:10:28;;;;;;;15.35;12.68;;;18.50;99.90;;;;;;5050109;28;20403;-78
2023/07/10 05:12:54;;;;;;;12.82;11.45;;;18.60;99.90;;;;;;5067314;28;20040;-78
2023/07/10 05:15:20;;;;;;;12.52;10.88;;;18.50;99.90;;;;;;5051421;28;20040;-78
2023/07/10 05:17:46;;;;;;;11.48;10.30;;;18.60;99.90;;;;;;5065934;28;20056;-79
2023/07/10 05:20:12;;;;;;;8.82;7.95;;;18.60;99.90;;;;;;5063549;28;20067;-79
2023/07/10 05:22:38;;;;;;;8.70;7.35;;;18.50;99.90;;;;;;5050837;28;20476;-78
2023/07/10 05:25:04;;;;;;;8.32;6.85;;;18.50;99.90;;;;;;5064209;28;20044;-78
2023/07/10 05:27:29;;;;;;;8.63;6.53;;;18.50;99.90;;;;;;5067005;28;20040;-79
2023/07/10 05:29:55;;;;;;;5.93;5.32;;;18.50;99.90;;;;;;5067993;28;20037;-79
2023/07/10 05:32:21;;;;;;;8.07;5.20;;;18.50;99.90;;;;;;5084163;28;20029;-79
2023/07/10 05:34:46;;;;;;;7.05;5.07;;;18.40;99.90;;;;;;5083385;28;20045;-79
2023/07/10 05:37:12;;;;;;;7.70;5.00;;;18.40;99.90;;;;;;5066180;28;20079;-79
2023/07/10 05:39:38;;;;;;;5.57;4.13;;;18.40;99.90;;;;;;5067153;28;20069;-79
2023/07/10 05:42:03;;;;;;;5.32;3.75;;;18.50;99.90;;;;;;5067024;28;20049;-78
2023/07/10 05:44:29;;;;;;;6.50;3.80;;;18.50;99.90;;;;;;5066806;28;20051;-78
2023/07/10 05:46:58;;;;;;;6.35;4.03;;;18.50;99.90;;;;;;5044417;28;20068;-78
2023/07/10 05:49:24;;;;;;;4.80;3.22;;;18.60;99.90;;;;;;5083480;28;20036;-79
2023/07/10 05:51:51;;;;;;;5.60;3.40;;;18.60;99.90;;;;;;5062171;28;20061;-79
2023/07/10 05:54:21;;;;;;;5.32;3.08;;;18.80;99.90;;;;;;5050037;28;20120;-79
2023/07/10 05:56:47;;;;;;;6.40;3.40;;;18.70;99.90;;;;;;5066858;28;20153;-79
2023/07/10 05:59:14;;;;;;;5.50;3.45;;;18.70;99.90;;;;;;5076908;28;20659;-78
2023/07/10 06:01:40;;;;;;;4.50;2.95;;;18.70;99.90;;;;;;5066965;28;20041;-78
2023/07/10 06:04:06;;;;;;;9.70;3.42;;;18.90;99.90;;;;;;5066585;28;20044;-78
2023/07/10 06:06:32;;;;;;;7.32;3.20;;;18.90;99.90;;;;;;5066043;28;20056;-78
2023/07/10 06:08:57;;;;;;;11.95;3.40;;;18.90;99.90;;;;;;5066278;28;20048;-80
2023/07/10 06:11:23;;;;;;;5.93;2.58;;;19.10;99.90;;;;;;5065445;28;21161;-79
2023/07/10 06:13:49;;;;;;;6.88;3.22;;;19.00;99.90;;;;;;5065968;28;20048;-80
2023/07/10 06:16:14;;;;;;;5.53;2.45;;;19.00;99.90;;;;;;5068173;28;20037;-78
2023/07/10 06:18:40;;;;;;;4.47;2.63;;;19.10;99.90;;;;;;5049875;28;20052;-79
2023/07/10 06:21:07;;;;;;;5.13;2.40;;;19.20;99.90;;;;;;5066162;28;20033;-79
2023/07/10 06:23:33;;;;;;;3.38;2.40;;;19.40;99.90;;;;;;5067848;28;20448;-79
2023/07/10 06:25:59;;;;;;;8.43;3.55;;;19.90;99.90;;;;;;5065996;28;20052;-79
2023/07/10 06:28:25;;;;;;;4.88;2.60;;;20.10;99.90;;;;;;5066068;28;20053;-81
2023/07/10 06:31:10;;;;;;;7.75;2.80;;;20.10;99.90;;;;;;5064028;28;21754;-80
2023/07/10 06:33:37;;;;;;;4.65;2.88;;;20.10;99.90;;;;;;5041464;28;20127;-79
2023/07/10 06:36:04;;;;;;;6.55;2.97;;;20.40;99.90;;;;;;5059603;28;20047;-78
2023/07/10 06:38:30;;;;;;;6.03;2.85;;;20.50;99.90;;;;;;5068037;28;20467;-79
2023/07/10 06:40:56;;;;;;;10.88;2.55;;;20.70;99.90;;;;;;5066614;28;20401;-79
2023/07/10 06:43:22;;;;;;;5.63;2.67;;;20.60;99.90;;;;;;5067182;28;20059;-79
2023/07/10 06:45:48;;;;;;;4.97;2.67;;;20.50;99.90;;;;;;5067046;28;20447;-79
2023/07/10 06:48:14;;;;;;;5.15;2.70;;;20.60;99.90;;;;;;5067153;28;20725;-79
2023/07/10 06:50:40;;;;;;;3.75;2.35;;;20.80;99.90;;;;;;5048254;28;20132;-79
2023/07/10 06:53:06;;;;;;;3.97;2.20;;;21.00;99.90;;;;;;5067279;28;20040;-79
2023/07/10 06:55:32;;;;;;;6.93;2.47;;;21.00;99.90;;;;;;5067857;28;20047;-79
2023/07/10 06:57:58;;;;;;;6.20;2.25;;;21.10;99.90;;;;;;5066032;28;20756;-77
2023/07/10 07:00:23;;;;;;;4.72;2.25;;;21.00;99.90;;;;;;5066223;28;20044;-78
2023/07/10 07:02:49;;;;;;;2.80;2.30;;;21.00;99.90;;;;;;5049146;28;20128;-77
2023/07/10 07:05:15;;;;;;;3.80;1.95;;;21.10;99.90;;;;;;5059007;28;20053;-79
2023/07/10 07:07:40;;;;;;;5.45;2.67;;;21.20;99.90;;;;;;5067201;28;20098;-79
2023/07/10 07:10:13;;;;;;;5.28;2.40;;;21.10;99.90;;;;;;5065978;28;20505;-79
2023/07/10 07:12:39;;;;;;;5.95;2.40;;;21.20;99.90;;;;;;5066643;28;20060;-80
2023/07/10 07:15:06;;;;;;;5.05;2.13;;;21.20;99.90;;;;;;5066027;28;20049;-79
2023/07/10 07:17:32;;;;;;;5.50;2.20;;;21.20;99.90;;;;;;5066911;28;20119;-78
2023/07/10 07:19:57;;;;;;;5.57;2.60;;;21.30;99.90;;;;;;5065722;28;20124;-79
2023/07/10 07:22:23;;;;;;;4.25;2.15;;;21.40;99.90;;;;;;5070701;28;20044;-79
2023/07/10 07:24:49;;;;;;;6.35;2.20;;;21.40;99.90;;;;;;5070645;28;20090;-78
2023/07/10 07:27:14;;;;;;;3.95;1.98;;;21.40;99.90;;;;;;5071002;28;20079;-77
2023/07/10 07:29:40;;;;;;;6.65;2.47;;;21.50;99.90;;;;;;5068664;28;20048;-77
2023/07/10 07:32:06;;;;;;;5.93;1.75;;;21.60;99.90;;;;;;5071162;28;20119;-77
2023/07/10 07:34:32;;;;;;;6.75;2.30;;;21.60;99.90;;;;;;5069326;28;20115;-79
2023/07/10 07:36:57;;;;;;;3.83;1.95;;;21.70;99.90;;;;;;5066425;28;20045;-78
2023/07/10 07:39:28;;;;;;;6.50;2.30;;;21.80;99.90;;;;;;5062375;28;20081;-77
2023/07/10 07:41:54;;;;;;;4.93;2.25;;;21.90;99.90;;;;;;5068896;28;20075;-76
2023/07/10 07:44:19;;;;;;;4.70;1.85;;;22.00;99.90;;;;;;5063616;28;20056;-77
2023/07/10 07:46:45;;;;;;;3.85;2.03;;;22.00;99.90;;;;;;5066047;28;20048;-75
2023/07/10 07:49:10;;;;;;;4.53;2.05;;;22.20;99.90;;;;;;5070390;28;20056;-76
2023/07/10 07:51:37;;;;;;;6.45;1.90;;;22.20;99.90;;;;;;5070042;28;20865;-76
2023/07/10 07:54:14;;;;;;;4.13;1.67;;;22.20;99.90;;;;;;5061255;28;20511;-77
2023/07/10 07:56:39;;;;;;;7.88;2.33;;;22.30;99.90;;;;;;5063649;28;20045;-77
2023/07/10 07:59:05;;;;;;;4.15;1.88;;;22.40;99.90;;;;;;5068080;28;20503;-76
2023/07/10 08:01:31;;;;;;;4.57;1.80;;;22.50;99.90;;;;;;5070276;28;20045;-78
2023/07/10 08:03:57;;;;;;;4.40;1.88;;;22.60;99.90;;;;;;5068609;28;20055;-76
2023/07/10 08:06:27;;;;;;;5.57;2.25;;;22.50;99.90;;;;;;5067494;28;20053;-77
2023/07/10 08:08:52;;;;;;;4.88;1.88;;;22.40;99.90;;;;;;5067310;28;20361;-76
2023/07/10 08:11:18;;;;;;;4.15;1.85;;;22.50;99.90;;;;;;5083506;28;20037;-77
2023/07/10 08:13:44;;;;;;;4.78;1.67;;;22.60;99.90;;;;;;5064393;28;20055;-76
2023/07/10 08:16:10;;;;;;;2.92;1.75;;;22.70;99.90;;;;;;5063802;28;20406;-76
2023/07/10 08:18:35;;;;;;;5.82;2.50;;;22.70;99.90;;;;;;5068234;28;20060;-76
2023/07/10 08:21:03;;;;;;;4.80;1.90;;;22.90;99.90;;;;;;5068778;28;20094;-76
2023/07/10 08:23:29;;;;;;;5.88;1.80;;;22.90;99.90;;;;;;5068825;28;20040;-77
2023/07/10 08:25:54;;;;;;;4.47;1.70;;;23.00;99.90;;;;;;5066220;28;20044;-76
2023/07/10 08:28:20;;;;;;;5.00;1.70;;;23.00;99.90;;;;;;5065509;28;20071;-78
2023/07/10 08:30:46;;;;;;;5.45;1.52;;;23.00;99.90;;;;;;5067703;28;20123;-76
2023/07/10 08:33:11;;;;;;;4.43;1.80;;;23.10;99.90;;;;;;5068234;28;20081;-76
2023/07/10 08:35:37;;;;;;;4.93;1.90;;;23.00;99.90;;;;;;5067977;28;20477;-76
2023/07/10 08:38:03;;;;;;;5.43;1.65;;;22.90;99.90;;;;;;5069636;28;20133;-76
2023/07/10 08:40:34;;;;;;;3.38;1.80;;;22.90;99.90;;;;;;5069095;28;20049;-77
2023/07/10 08:43:14;;;;;;;3.53;1.55;;;22.90;99.90;;;;;;5068119;28;20060;-76
2023/07/10 08:45:41;;;;;;;4.95;2.00;;;22.90;99.90;;;;;;5067836;28;20053;-76
2023/07/10 08:48:32;;;;;;;5.00;1.70;;;22.80;99.90;;;;;;5085287;28;20150;-76
2023/07/10 08:51:24;;;;;;;7.53;2.17;;;23.00;99.90;;;;;;5067109;28;20441;-76
2023/07/10 08:54:02;;;;;;;;;;;23.00;99.90;;;;;;5063847;28;20045;-76
2023/07/10 08:56:38;;;;;;;6.22;2.58;;;22.90;99.90;;;;;;5068705;28;20025;-76
2023/07/10 08:59:22;;;;;;;6.82;2.08;;;23.10;99.90;;;;;;5067801;28;20048;-76
2023/07/10 09:01:48;;;;;;;4.22;1.90;;;23.30;99.90;;;;;;5068230;28;20048;-76
2023/07/10 09:04:17;;;;;;;3.08;1.60;;;23.30;99.90;;;;;;5084236;28;20044;-76
2023/07/10 09:06:48;;;;;;;6.35;1.95;;;23.30;99.90;;;;;;5061902;28;20139;-77
2023/07/10 09:09:54;;;;;;;5.55;1.85;;;23.30;99.90;;;;;;5047255;28;20048;-77
2023/07/10 09:12:37;;;;;;;4.93;1.75;;;23.10;99.90;;;;;;5050389;28;20057;-76
2023/07/10 09:15:07;;;;;;;6.10;2.20;;;22.90;99.90;;;;;;5067346;28;20516;-76
2023/07/10 09:18:01;;;;;;;5.90;1.90;;;22.90;99.90;;;;;;5069002;28;20054;-76
2023/07/10 09:20:27;;;;;;;7.57;2.40;;;23.00;99.90;;;;;;5068084;28;20040;-76
2023/07/10 09:23:02;;;;;;;6.78;2.30;;;23.00;99.90;;;;;;5068739;28;20050;-76
2023/07/10 09:25:29;;;;;;;5.22;1.67;;;23.20;99.90;;;;;;5067877;28;20052;-76
2023/07/10 09:27:56;;;;;;;6.70;2.20;;;23.20;99.90;;;;;;5068901;28;20044;-76
2023/07/10 09:30:59;;;;;;;7.45;2.25;;;23.30;99.90;;;;;;5067530;28;20151;-77
2023/07/10 09:33:56;;;;;;;6.22;2.30;;;23.20;99.90;;;;;;5068596;28;20393;-77
2023/07/10 09:36:21;;;;;;;5.68;1.90;;;23.00;99.90;;;;;;5060261;28;20137;-77
2023/07/10 09:38:49;;;;;;;5.05;1.92;;;23.00;99.90;;;;;;5067107;28;20071;-76
2023/07/10 09:41:27;;;;;;;7.53;2.05;;;22.90;99.90;;;;;;5067653;28;20052;-76
2023/07/10 09:44:01;;;;;;;5.47;2.53;;;22.90;99.90;;;;;;5067686;28;20110;-76
2023/07/10 09:46:32;;;;;;;7.97;2.20;;;23.10;99.90;;;;;;5066997;28;20044;-77
2023/07/10 09:49:02;;;;;;;7.03;2.30;;;23.00;99.90;;;;;;5067553;28;20124;-76
2023/07/10 09:51:28;;;;;;;7.55;2.35;;;23.00;99.90;;;;;;5066340;28;20049;-76
2023/07/10 09:54:03;;;;;;;5.95;2.60;;;23.20;99.90;;;;;;5068246;28;20083;-76
2023/07/10 09:56:35;;;;;;;5.82;2.20;;;23.40;99.90;;;;;;5066306;28;20032;-77
2023/07/10 09:59:18;;;;;;;5.63;3.15;;;23.60;99.90;;;;;;5065599;28;20071;-77
2023/07/10 10:01:50;;;;;;;7.07;2.30;;;23.40;99.90;;;;;;5067429;28;20071;-78
2023/07/10 10:04:32;;;;;;;6.40;2.25;;;23.50;99.90;;;;;;5066212;28;20055;-78
2023/07/10 10:07:05;;;;;;;8.07;2.35;;;23.60;99.90;;;;;;5067381;28;20423;-77
2023/07/10 10:09:31;;;;;;;6.50;2.10;;;23.60;99.90;;;;;;5067623;28;20127;-76
2023/07/10 10:12:03;;;;;;;7.05;2.33;;;23.50;99.90;;;;;;5067458;28;20037;-77
2023/07/10 10:14:42;;;;;;;7.50;2.30;;;23.70;99.90;;;;;;5049745;28;20052;-79
2023/07/10 10:17:11;;;;;;;6.13;2.00;;;23.50;99.90;;;;;;5061479;28;20570;-77
2023/07/10 10:19:42;;;;;;;5.80;2.53;;;23.70;99.90;;;;;;5047271;28;20052;-78
2023/07/10 10:22:12;;;;;;;3.70;1.95;;;23.20;99.90;;;;;;5061212;28;20064;-77
2023/07/10 10:24:38;;;;;;;4.97;2.03;;;23.60;99.90;;;;;;5065869;28;20508;-79
2023/07/10 10:27:09;;;;;;;5.40;2.38;;;23.80;99.90;;;;;;5064350;28;20044;-79
2023/07/10 10:29:37;;;;;;;6.60;2.08;;;24.10;99.90;;;;;;5065383;28;20043;-80
2023/07/10 10:32:28;;;;;;;5.93;2.28;;;24.20;99.90;;;;;;5058208;28;20059;-79
2023/07/10 10:35:28;;;;;;;9.65;2.70;;;24.40;99.90;;;;;;5057430;28;20072;-80
2023/07/10 10:37:59;;;;;;;6.43;2.10;;;24.90;99.90;;;;;;5065650;28;20056;-79
2023/07/10 10:40:40;;;;;;;8.02;1.90;;;25.10;99.90;;;;;;5067437;28;20060;-79
2023/07/10 10:43:34;;;;;;;10.82;2.15;;;25.10;99.90;;;;;;5063224;28;20086;-78
2023/07/10 10:46:25;;;;;;;6.38;2.17;;;25.10;96.60;;;;;;5064871;28;20523;-80
2023/07/10 10:48:56;;;;;;;7.75;2.03;;;25.20;98.10;;;;;;5062225;28;20381;-80
2023/07/10 10:51:22;;;;;;;5.00;1.90;;;25.20;99.90;;;;;;5066560;28;20049;-81
2023/07/10 10:53:53;;;;;;;8.43;2.10;;;25.30;99.40;;;;;;5062283;28;20044;-80
2023/07/10 10:56:33;;;;;;;6.68;1.70;;;25.30;99.20;;;;;;5055936;28;20392;-80
2023/07/10 10:59:21;;;;;;;4.78;1.60;;;25.40;98.60;;;;;;5069313;28;20055;-80
2023/07/10 11:02:05;;;;;;;3.40;1.67;;;25.50;96.70;;;;;;5069450;28;20056;-79
2023/07/10 11:04:36;;;;;;;3.95;1.60;;;25.50;95.40;;;;;;5055442;28;20113;-80
2023/07/10 11:07:06;;;;;;;6.80;2.27;;;25.50;97.60;;;;;;5069394;28;20037;-81
2023/07/10 11:09:48;;;;;;;7.43;1.80;;;25.50;97.10;;;;;;5064198;28;20456;-81
2023/07/10 11:12:18;;;;;;;8.48;2.03;;;25.50;96.10;;;;;;5071288;28;20048;-81
2023/07/10 11:14:45;;;;;;;4.85;1.85;;;25.60;95.30;;;;;;5070902;28;20044;-80
2023/07/10 11:17:12;;;;;;;5.30;1.70;;;25.60;95.50;;;;;;5086442;28;20119;-80
2023/07/10 11:19:38;;;;;;;4.43;1.70;;;25.80;95.60;;;;;;5068868;28;20513;-81
2023/07/10 11:22:28;;;;;;;5.10;2.22;;;25.80;94.60;;;;;;5069444;28;20074;-82
2023/07/10 11:24:54;;;;;;;5.60;1.90;;;25.90;89.20;;;;;;5051524;28;20132;-81
2023/07/10 11:27:32;;;;;;;5.18;1.90;;;25.80;93.90;;;;;;5070467;28;20044;-82
2023/07/10 11:30:11;;;;;;;6.43;1.80;;;25.70;92.90;;;;;;5066052;28;20560;-82
2023/07/10 11:32:57;;;;;;;7.65;2.25;;;25.40;91.50;;;;;;5064942;28;20048;-81
2023/07/10 11:35:25;;;;;;;6.78;1.95;;;25.30;92.10;;;;;;5071619;28;20048;-81
2023/07/10 11:37:50;;;;;;;3.85;1.60;;;25.10;94.00;;;;;;5070542;28;20131;-80
2023/07/10 11:40:28;;;;;;;5.78;1.55;;;25.00;94.00;;;;;;5070701;28;20160;-80
2023/07/10 11:43:02;;;;;;;5.18;1.60;;;25.00;93.30;;;;;;5071434;28;20504;-80
2023/07/10 11:45:35;;;;;;;6.57;1.67;;;25.10;93.60;;;;;;5069168;28;20049;-80
2023/07/10 11:48:01;;;;;;;6.55;2.00;;;25.30;93.30;;;;;;5069306;28;20674;-80
2023/07/10 11:50:29;;;;;;;5.30;1.70;;;25.40;93.30;;;;;;5068904;28;20157;-81
2023/07/10 11:53:13;;;;;;;5.35;1.73;;;25.20;93.00;;;;;;5066817;28;20090;-79
2023/07/10 11:56:02;;;;;;;6.40;1.83;;;24.70;90.80;;;;;;5071403;28;20048;-80
2023/07/10 11:58:33;;;;;;;4.38;2.20;;;24.80;91.20;;;;;;5070074;28;20449;-82
2023/07/10 12:01:26;;;;;;;6.17;1.80;;;25.10;92.50;;;;;;5069235;28;20529;-80
2023/07/10 12:03:54;;;;;;;4.43;1.42;;;24.70;86.90;;;;;;5066823;28;20091;-80
2023/07/10 12:06:23;;;;;;;4.45;1.30;;;24.80;92.30;;;;;;5067606;28;20117;-80
2023/07/10 12:08:52;;;;;;;5.13;1.60;;;24.80;92.30;;;;;;5068778;28;20044;-79
2023/07/10 12:11:37;;;;;;;5.75;2.00;;;25.00;91.70;;;;;;5068980;28;20045;-80
2023/07/10 12:14:15;;;;;;;4.50;1.45;;;25.10;89.20;;;;;;5069309;28;20048;-80
2023/07/10 12:16:45;;;;;;;3.88;1.30;;;25.20;90.70;;;;;;5065333;28;20512;-80
2023/07/10 12:19:17;;;;;;;5.95;1.40;;;25.20;90.20;;;;;;5067027;28;20408;-80
2023/07/10 12:21:43;;;;;;;7.47;1.67;;;25.00;90.80;;;;;;5051008;28;20071;-80
2023/07/10 12:24:14;;;;;;;4.93;1.38;;;24.80;91.40;;;;;;5066091;28;20048;-81
2023/07/10 12:26:40;;;;;;;4.28;1.50;;;24.90;91.30;;;;;;5066716;28;20385;-79
2023/07/10 12:29:11;;;;;;;4.50;1.50;;;25.10;91.20;;;;;;5083331;28;20040;-80
2023/07/10 12:31:39;;;;;;;6.13;1.70;;;25.20;90.20;;;;;;5068153;28;20048;-80
2023/07/10 12:34:05;;;;;;;4.90;1.33;;;25.20;90.70;;;;;;5067517;28;20049;-80
2023/07/10 12:36:38;;;;;;;5.28;1.65;;;25.40;91.70;;;;;;5068157;28;20044;-80
2023/07/10 12:39:09;;;;;;;5.07;1.45;;;25.50;90.80;;;;;;5067814;28;20115;-81
2023/07/10 12:41:39;;;;;;;5.87;1.60;;;25.70;90.30;;;;;;5069684;28;20488;-80
2023/07/10 12:44:05;;;;;;;6.75;1.92;;;25.50;90.50;;;;;;5068470;28;20283;-83
2023/07/10 12:46:32;;;;;;;4.63;1.35;;;25.50;90.40;;;;;;5069487;28;20049;-81
2023/07/10 12:49:04;;;;;;;4.32;1.65;;;25.30;89.10;;;;;;5068749;28;20060;-80
2023/07/10 12:51:32;;;;;;;;;;;25.50;90.10;;;;;;5084711;28;20052;-81